sensor_id;sensor_type;location;lat;lon;timestamp;pressure;altitude;pressure_sealevel;temperature;humidity
55914;BME280;58179;48.776;9.124;2023-04-27T00:01:38;97415.91;;;7.80;100.00
55914;BME280;58179;48.776;9.124;2023-04-27T00:04:04;97403.97;;;7.77;100.00
55914;BME280;58179;48.776;9.124;2023-04-27T00:06:31;97413.47;;;7.78;100.00
55914;BME280;58179;48.776;9.124;2023-04-27T00:08:57;97409.25;;;7.77;100.00
55914;BME280;58179;48.776;9.124;2023-04-27T00:11:24;97414.75;;;7.76;100.00
55914;BME280;58179;48.776;9.124;2023-04-27T00:13:51;97401.56;;;7.76;100.00
55914;BME280;58179;48.776;9.124;2023-04-27T00:16:17;97402.16;;;7.78;100.00
55914;BME280;58179;48.776;9.124;2023-04-27T00:18:43;97396.41;;;7.81;100.00
55914;BME280;58179;48.776;9.124;2023-04-27T00:21:09;97402.25;;;7.83;100.00
55914;BME280;58179;48.776;9.124;2023-04-27T00:23:35;97399.59;;;7.83;100.00
55914;BME280;58179;48.776;9.124;2023-04-27T00:26:01;97403.25;;;7.82;100.00
55914;BME280;58179;48.776;9.124;2023-04-27T00:28:27;97404.31;;;7.81;100.00
55914;BME280;58179;48.776;9.124;2023-04-27T00:30:54;97394.69;;;7.75;100.00
55914;BME280;58179;48.776;9.124;2023-04-27T00:33:20;97398.03;;;7.70;100.00
55914;BME280;58179;48.776;9.124;2023-04-27T00:35:46;97395.31;;;7.65;100.00
55914;BME280;58179;48.776;9.124;2023-04-27T00:38:12;97400.44;;;7.60;100.00
55914;BME280;58179;48.776;9.124;2023-04-27T00:40:38;97386.16;;;7.56;100.00
55914;BME280;58179;48.776;9.124;2023-04-27T00:43:04;97384.31;;;7.57;100.00
55914;BME280;58179;48.776;9.124;2023-04-27T00:45:30;97383.50;;;7.56;100.00
55914;BME280;58179;48.776;9.124;2023-04-27T00:47:58;97386.16;;;7.56;100.00
55914;BME280;58179;48.776;9.124;2023-04-27T00:50:28;97372.75;;;7.58;100.00
55914;BME280;58179;48.776;9.124;2023-04-27T00:52:55;97382.00;;;7.60;100.00
55914;BME280;58179;48.776;9.124;2023-04-27T00:55:21;97380.75;;;7.63;100.00
55914;BME280;58179;48.776;9.124;2023-04-27T00:57:47;97376.88;;;7.65;100.00
55914;BME280;58179;48.776;9.124;2023-04-27T01:00:13;97373.97;;;7.67;100.00
55914;BME280;58179;48.776;9.124;2023-04-27T01:02:40;97378.69;;;7.65;100.00
55914;BME280;58179;48.776;9.124;2023-04-27T01:05:08;97383.16;;;7.64;100.00
55914;BME280;58179;48.776;9.124;2023-04-27T01:07:37;97389.69;;;7.62;100.00
55914;BME280;58179;48.776;9.124;2023-04-27T01:10:04;97383.75;;;7.55;100.00
55914;BME280;58179;48.776;9.124;2023-04-27T01:12:30;97383.88;;;7.48;100.00
55914;BME280;58179;48.776;9.124;2023-04-27T01:14:56;97387.53;;;7.47;100.00
55914;BME280;58179;48.776;9.124;2023-04-27T01:17:22;97385.38;;;7.44;100.00
55914;BME280;58179;48.776;9.124;2023-04-27T01:19:49;97379.53;;;7.42;100.00
55914;BME280;58179;48.776;9.124;2023-04-27T01:22:17;97388.22;;;7.43;100.00
55914;BME280;58179;48.776;9.124;2023-04-27T01:24:44;97386.94;;;7.45;100.00
55914;BME280;58179;48.776;9.124;2023-04-27T01:27:11;97383.88;;;7.48;100.00
55914;BME280;58179;48.776;9.124;2023-04-27T01:29:38;97398.88;;;7.48;100.00
55914;BME280;58179;48.776;9.124;2023-04-27T01:32:04;97377.22;;;7.46;100.00
55914;BME280;58179;48.776;9.124;2023-04-27T01:34:30;97386.16;;;7.45;100.00
55914;BME280;58179;48.776;9.124;2023-04-27T01:36:56;97382.75;;;7.44;100.00
55914;BME280;58179;48.776;9.124;2023-04-27T01:39:22;97380.09;;;7.44;100.00
55914;BME280;58179;48.776;9.124;2023-04-27T01:41:49;97385.81;;;7.41;100.00
55914;BME280;58179;48.776;9.124;2023-04-27T01:44:15;97380.19;;;7.37;100.00
55914;BME280;58179;48.776;9.124;2023-04-27T01:46:41;97383.09;;;7.36;100.00
55914;BME280;58179;48.776;9.124;2023-04-27T01:49:07;97387.78;;;7.34;100.00
55914;BME280;58179;48.776;9.124;2023-04-27T01:51:33;97380.09;;;7.32;100.00
55914;BME280;58179;48.776;9.124;2023-04-27T01:53:59;97379.78;;;7.29;100.00
55914;BME280;58179;48.776;9.124;2023-04-27T01:56:25;97383.88;;;7.25;100.00
55914;BME280;58179;48.776;9.124;2023-04-27T01:58:53;97389.59;;;7.22;100.00
55914;BME280;58179;48.776;9.124;2023-04-27T02:01:20;97382.16;;;7.19;100.00
55914;BME280;58179;48.776;9.124;2023-04-27T02:03:46;97389.28;;;7.18;100.00
55914;BME280;58179;48.776;9.124;2023-04-27T02:06:12;97386.06;;;7.16;100.00
55914;BME280;58179;48.776;9.124;2023-04-27T02:08:37;97387.34;;;7.14;100.00
55914;BME280;58179;48.776;9.124;2023-04-27T02:11:04;97397.88;;;7.14;100.00
55914;BME280;58179;48.776;9.124;2023-04-27T02:13:29;97394.66;;;7.12;100.00
55914;BME280;58179;48.776;9.124;2023-04-27T02:15:57;97398.09;;;7.12;100.00
55914;BME280;58179;48.776;9.124;2023-04-27T02:18:22;97391.78;;;7.13;100.00
55914;BME280;58179;48.776;9.124;2023-04-27T02:20:49;97399.69;;;7.13;100.00
55914;BME280;58179;48.776;9.124;2023-04-27T02:23:15;97398.88;;;7.13;100.00
55914;BME280;58179;48.776;9.124;2023-04-27T02:25:41;97395.22;;;7.14;100.00
55914;BME280;58179;48.776;9.124;2023-04-27T02:28:11;97409.06;;;7.09;100.00
55914;BME280;58179;48.776;9.124;2023-04-27T02:30:37;97400.34;;;7.09;100.00
55914;BME280;58179;48.776;9.124;2023-04-27T02:33:04;97408.25;;;7.09;100.00
55914;BME280;58179;48.776;9.124;2023-04-27T02:35:31;97402.53;;;7.12;100.00
55914;BME280;58179;48.776;9.124;2023-04-27T02:37:58;97399.22;;;7.16;100.00
55914;BME280;58179;48.776;9.124;2023-04-27T02:40:24;97408.50;;;7.19;100.00
55914;BME280;58179;48.776;9.124;2023-04-27T02:42:50;97415.59;;;7.18;100.00
55914;BME280;58179;48.776;9.124;2023-04-27T02:45:16;97420.75;;;7.13;100.00
55914;BME280;58179;48.776;9.124;2023-04-27T02:47:42;97411.69;;;7.09;100.00
55914;BME280;58179;48.776;9.124;2023-04-27T02:50:10;97415.13;;;7.10;100.00
55914;BME280;58179;48.776;9.124;2023-04-27T02:52:38;97416.63;;;7.06;100.00
55914;BME280;58179;48.776;9.124;2023-04-27T02:55:05;97417.06;;;7.03;100.00
55914;BME280;58179;48.776;9.124;2023-04-27T02:57:31;97411.00;;;7.02;100.00
55914;BME280;58179;48.776;9.124;2023-04-27T02:59:57;97424.75;;;7.04;100.00
55914;BME280;58179;48.776;9.124;2023-04-27T03:02:22;97417.97;;;7.08;100.00
55914;BME280;58179;48.776;9.124;2023-04-27T03:04:51;97419.94;;;7.13;100.00
55914;BME280;58179;48.776;9.124;2023-04-27T03:07:20;97417.88;;;7.15;100.00
55914;BME280;58179;48.776;9.124;2023-04-27T03:09:46;97415.47;;;7.13;100.00
55914;BME280;58179;48.776;9.124;2023-04-27T03:12:12;97412.59;;;7.15;100.00
55914;BME280;58179;48.776;9.124;2023-04-27T03:14:38;97410.44;;;7.12;100.00
55914;BME280;58179;48.776;9.124;2023-04-27T03:17:04;97407.44;;;7.08;100.00
55914;BME280;58179;48.776;9.124;2023-04-27T03:19:30;97410.88;;;7.09;100.00
55914;BME280;58179;48.776;9.124;2023-04-27T03:21:56;97409.28;;;7.08;100.00
55914;BME280;58179;48.776;9.124;2023-04-27T03:24:23;97411.69;;;7.09;100.00
55914;BME280;58179;48.776;9.124;2023-04-27T03:26:50;97416.50;;;7.12;100.00
55914;BME280;58179;48.776;9.124;2023-04-27T03:29:16;97413.66;;;7.14;100.00
55914;BME280;58179;48.776;9.124;2023-04-27T03:31:42;97413.41;;;7.15;100.00
55914;BME280;58179;48.776;9.124;2023-04-27T03:34:08;97412.97;;;7.18;100.00
55914;BME280;58179;48.776;9.124;2023-04-27T03:36:34;97416.97;;;7.21;100.00
55914;BME280;58179;48.776;9.124;2023-04-27T03:39:00;97418.34;;;7.23;100.00
55914;BME280;58179;48.776;9.124;2023-04-27T03:41:27;97419.13;;;7.24;100.00
55914;BME280;58179;48.776;9.124;2023-04-27T03:43:53;97419.94;;;7.24;100.00
55914;BME280;58179;48.776;9.124;2023-04-27T03:46:19;97412.25;;;7.23;100.00
55914;BME280;58179;48.776;9.124;2023-04-27T03:48:45;97414.09;;;7.22;100.00
55914;BME280;58179;48.776;9.124;2023-04-27T03:51:11;97421.66;;;7.19;100.00
55914;BME280;58179;48.776;9.124;2023-04-27T03:53:38;97427.84;;;7.13;100.00
55914;BME280;58179;48.776;9.124;2023-04-27T03:56:04;97419.47;;;7.04;100.00
55914;BME280;58179;48.776;9.124;2023-04-27T03:58:31;97425.41;;;6.99;100.00
55914;BME280;58179;48.776;9.124;2023-04-27T04:00:57;97429.09;;;6.98;100.00
55914;BME280;58179;48.776;9.124;2023-04-27T04:03:23;97423.81;;;6.98;100.00
55914;BME280;58179;48.776;9.124;2023-04-27T04:05:49;97421.63;;;6.95;100.00
55914;BME280;58179;48.776;9.124;2023-04-27T04:08:15;97429.53;;;6.95;100.00
55914;BME280;58179;48.776;9.124;2023-04-27T04:10:41;97423.25;;;6.96;100.00
55914;BME280;58179;48.776;9.124;2023-04-27T04:13:06;97424.03;;;6.97;100.00
55914;BME280;58179;48.776;9.124;2023-04-27T04:15:34;97431.13;;;6.96;100.00
55914;BME280;58179;48.776;9.124;2023-04-27T04:18:00;97414.97;;;6.93;100.00
55914;BME280;58179;48.776;9.124;2023-04-27T04:20:26;97412.59;;;6.91;100.00
55914;BME280;58179;48.776;9.124;2023-04-27T04:22:52;97419.44;;;6.92;100.00
55914;BME280;58179;48.776;9.124;2023-04-27T04:25:18;97432.16;;;6.95;100.00
55914;BME280;58179;48.776;9.124;2023-04-27T04:27:45;97439.38;;;7.00;100.00
55914;BME280;58179;48.776;9.124;2023-04-27T04:30:13;97436.28;;;7.03;100.00
55914;BME280;58179;48.776;9.124;2023-04-27T04:32:40;97434.25;;;7.05;100.00
55914;BME280;58179;48.776;9.124;2023-04-27T04:35:07;97440.31;;;7.06;100.00
55914;BME280;58179;48.776;9.124;2023-04-27T04:37:33;97433.66;;;7.03;100.00
55914;BME280;58179;48.776;9.124;2023-04-27T04:40:06;97436.72;;;7.00;100.00
55914;BME280;58179;48.776;9.124;2023-04-27T04:42:36;97440.41;;;6.99;100.00
55914;BME280;58179;48.776;9.124;2023-04-27T04:45:03;97442.25;;;6.98;100.00
55914;BME280;58179;48.776;9.124;2023-04-27T04:47:29;97438.34;;;7.01;100.00
55914;BME280;58179;48.776;9.124;2023-04-27T04:50:00;97436.06;;;7.05;100.00
55914;BME280;58179;48.776;9.124;2023-04-27T04:52:26;97444.78;;;7.05;100.00
55914;BME280;58179;48.776;9.124;2023-04-27T04:54:52;97433.44;;;7.05;100.00
55914;BME280;58179;48.776;9.124;2023-04-27T04:57:19;97439.63;;;7.10;100.00
55914;BME280;58179;48.776;9.124;2023-04-27T04:59:45;97443.16;;;7.16;100.00
55914;BME280;58179;48.776;9.124;2023-04-27T05:02:12;97438.03;;;7.21;100.00
55914;BME280;58179;48.776;9.124;2023-04-27T05:04:37;97443.63;;;7.24;100.00
55914;BME280;58179;48.776;9.124;2023-04-27T05:07:05;97444.78;;;7.28;100.00
55914;BME280;58179;48.776;9.124;2023-04-27T05:09:31;97450.97;;;7.34;100.00
55914;BME280;58179;48.776;9.124;2023-04-27T05:11:57;97445.00;;;7.38;100.00
55914;BME280;58179;48.776;9.124;2023-04-27T05:14:23;97442.25;;;7.45;100.00
55914;BME280;58179;48.776;9.124;2023-04-27T05:16:49;97438.94;;;7.50;100.00
55914;BME280;58179;48.776;9.124;2023-04-27T05:19:16;97443.53;;;7.54;100.00
55914;BME280;58179;48.776;9.124;2023-04-27T05:21:43;97443.53;;;7.54;100.00
55914;BME280;58179;48.776;9.124;2023-04-27T05:24:10;97439.41;;;7.58;100.00
55914;BME280;58179;48.776;9.124;2023-04-27T05:26:37;97441.69;;;7.66;100.00
55914;BME280;58179;48.776;9.124;2023-04-27T05:29:03;97444.44;;;7.71;100.00
55914;BME280;58179;48.776;9.124;2023-04-27T05:31:31;97454.84;;;7.78;100.00
55914;BME280;58179;48.776;9.124;2023-04-27T05:33:56;97446.81;;;7.85;100.00
55914;BME280;58179;48.776;9.124;2023-04-27T05:36:22;97457.22;;;7.91;100.00
55914;BME280;58179;48.776;9.124;2023-04-27T05:38:48;97458.94;;;7.97;100.00
55914;BME280;58179;48.776;9.124;2023-04-27T05:41:16;97458.03;;;8.03;100.00
55914;BME280;58179;48.776;9.124;2023-04-27T05:43:41;97459.72;;;8.09;100.00
55914;BME280;58179;48.776;9.124;2023-04-27T05:46:12;97461.56;;;8.09;100.00
55914;BME280;58179;48.776;9.124;2023-04-27T05:48:39;97455.78;;;8.12;100.00
55914;BME280;58179;48.776;9.124;2023-04-27T05:51:06;97457.31;;;8.08;100.00
55914;BME280;58179;48.776;9.124;2023-04-27T05:53:32;97459.59;;;8.04;100.00
55914;BME280;58179;48.776;9.124;2023-04-27T05:55:58;97461.06;;;8.12;100.00
55914;BME280;58179;48.776;9.124;2023-04-27T05:58:27;97468.75;;;8.25;100.00
55914;BME280;58179;48.776;9.124;2023-04-27T06:00:53;97476.06;;;8.35;100.00
55914;BME280;58179;48.776;9.124;2023-04-27T06:03:19;97473.31;;;8.41;100.00
55914;BME280;58179;48.776;9.124;2023-04-27T06:05:45;97477.16;;;8.50;100.00
55914;BME280;58179;48.776;9.124;2023-04-27T06:08:11;97477.00;;;8.57;100.00
55914;BME280;58179;48.776;9.124;2023-04-27T06:10:38;97470.69;;;8.58;100.00
55914;BME280;58179;48.776;9.124;2023-04-27T06:13:04;97477.16;;;8.50;100.00
55914;BME280;58179;48.776;9.124;2023-04-27T06:15:32;97473.59;;;8.57;100.00
55914;BME280;58179;48.776;9.124;2023-04-27T06:17:58;97467.03;;;8.59;100.00
55914;BME280;58179;48.776;9.124;2023-04-27T06:20:24;97459.13;;;8.59;100.00
55914;BME280;58179;48.776;9.124;2023-04-27T06:22:50;97478.72;;;8.63;100.00
55914;BME280;58179;48.776;9.124;2023-04-27T06:25:16;97480.34;;;8.64;100.00
55914;BME280;58179;48.776;9.124;2023-04-27T06:27:42;97476.97;;;8.69;100.00
55914;BME280;58179;48.776;9.124;2023-04-27T06:30:09;97479.00;;;8.78;100.00
55914;BME280;58179;48.776;9.124;2023-04-27T06:32:37;97482.28;;;8.85;100.00
55914;BME280;58179;48.776;9.124;2023-04-27T06:35:03;97488.47;;;8.91;100.00
55914;BME280;58179;48.776;9.124;2023-04-27T06:37:30;97482.16;;;8.92;100.00
55914;BME280;58179;48.776;9.124;2023-04-27T06:39:55;97483.03;;;8.98;100.00
55914;BME280;58179;48.776;9.124;2023-04-27T06:42:22;97487.44;;;9.09;100.00
55914;BME280;58179;48.776;9.124;2023-04-27T06:44:47;97484.31;;;9.12;100.00
55914;BME280;58179;48.776;9.124;2023-04-27T06:47:13;97490.09;;;9.25;100.00
55914;BME280;58179;48.776;9.124;2023-04-27T06:49:40;97491.22;;;9.29;100.00
55914;BME280;58179;48.776;9.124;2023-04-27T06:52:06;97496.28;;;9.31;100.00
55914;BME280;58179;48.776;9.124;2023-04-27T06:54:32;97494.97;;;9.33;100.00
55914;BME280;58179;48.776;9.124;2023-04-27T06:56:58;97496.56;;;9.35;100.00
55914;BME280;58179;48.776;9.124;2023-04-27T06:59:24;97506.09;;;9.36;100.00
55914;BME280;58179;48.776;9.124;2023-04-27T07:01:50;97512.19;;;9.36;100.00
55914;BME280;58179;48.776;9.124;2023-04-27T07:04:16;97504.72;;;9.33;100.00
55914;BME280;58179;48.776;9.124;2023-04-27T07:06:43;97505.47;;;9.45;100.00
55914;BME280;58179;48.776;9.124;2023-04-27T07:09:09;97495.78;;;9.51;100.00
55914;BME280;58179;48.776;9.124;2023-04-27T07:11:35;97499.28;;;9.56;100.00
55914;BME280;58179;48.776;9.124;2023-04-27T07:14:01;97491.94;;;9.58;100.00
55914;BME280;58179;48.776;9.124;2023-04-27T07:16:27;97494.09;;;9.61;100.00
55914;BME280;58179;48.776;9.124;2023-04-27T07:18:52;97490.72;;;9.66;100.00
55914;BME280;58179;48.776;9.124;2023-04-27T07:21:18;97492.94;;;9.74;100.00
55914;BME280;58179;48.776;9.124;2023-04-27T07:23:46;97484.38;;;9.84;100.00
55914;BME280;58179;48.776;9.124;2023-04-27T07:26:12;97492.19;;;9.95;100.00
55914;BME280;58179;48.776;9.124;2023-04-27T07:28:38;97489.97;;;10.09;100.00
55914;BME280;58179;48.776;9.124;2023-04-27T07:31:05;97489.91;;;10.21;100.00
55914;BME280;58179;48.776;9.124;2023-04-27T07:33:31;97487.38;;;10.31;100.00
55914;BME280;58179;48.776;9.124;2023-04-27T07:35:57;97477.97;;;10.40;100.00
55914;BME280;58179;48.776;9.124;2023-04-27T07:38:23;97477.78;;;10.46;100.00
55914;BME280;58179;48.776;9.124;2023-04-27T07:40:51;97483.06;;;10.46;100.00
55914;BME280;58179;48.776;9.124;2023-04-27T07:43:17;97474.09;;;10.47;100.00
55914;BME280;58179;48.776;9.124;2023-04-27T07:45:43;97473.84;;;10.49;100.00
55914;BME280;58179;48.776;9.124;2023-04-27T07:48:12;97479.69;;;10.51;100.00
55914;BME280;58179;48.776;9.124;2023-04-27T07:50:47;97475.00;;;10.58;100.00
55914;BME280;58179;48.776;9.124;2023-04-27T07:53:13;97480.91;;;10.65;100.00
55914;BME280;58179;48.776;9.124;2023-04-27T07:55:39;97477.81;;;10.73;100.00
55914;BME280;58179;48.776;9.124;2023-04-27T07:58:07;97474.97;;;10.80;100.00
55914;BME280;58179;48.776;9.124;2023-04-27T08:00:33;97476.16;;;10.94;100.00
55914;BME280;58179;48.776;9.124;2023-04-27T08:02:59;97475.94;;;11.01;100.00
55914;BME280;58179;48.776;9.124;2023-04-27T08:05:24;97481.88;;;11.13;100.00
55914;BME280;58179;48.776;9.124;2023-04-27T08:07:50;97479.03;;;11.19;100.00
55914;BME280;58179;48.776;9.124;2023-04-27T08:10:18;97485.72;;;11.27;100.00
55914;BME280;58179;48.776;9.124;2023-04-27T08:12:44;97479.66;;;11.32;100.00
55914;BME280;58179;48.776;9.124;2023-04-27T08:15:11;97485.56;;;11.44;100.00
55914;BME280;58179;48.776;9.124;2023-04-27T08:17:37;97474.56;;;11.57;100.00
55914;BME280;58179;48.776;9.124;2023-04-27T08:20:08;97473.84;;;11.72;100.00
55914;BME280;58179;48.776;9.124;2023-04-27T08:22:37;97471.31;;;11.87;100.00
55914;BME280;58179;48.776;9.124;2023-04-27T08:25:04;97477.22;;;11.99;100.00
55914;BME280;58179;48.776;9.124;2023-04-27T08:27:30;97475.16;;;12.11;100.00
55914;BME280;58179;48.776;9.124;2023-04-27T08:29:56;97469.09;;;12.16;100.00
55914;BME280;58179;48.776;9.124;2023-04-27T08:32:24;97470.16;;;12.20;100.00
55914;BME280;58179;48.776;9.124;2023-04-27T08:34:50;97470.69;;;12.17;100.00
55914;BME280;58179;48.776;9.124;2023-04-27T08:37:16;97465.16;;;12.28;100.00
55914;BME280;58179;48.776;9.124;2023-04-27T08:39:43;97458.50;;;12.26;100.00
55914;BME280;58179;48.776;9.124;2023-04-27T08:42:12;97461.97;;;12.31;100.00
55914;BME280;58179;48.776;9.124;2023-04-27T08:44:39;97463.59;;;12.32;100.00
55914;BME280;58179;48.776;9.124;2023-04-27T08:47:05;97460.41;;;12.40;100.00
55914;BME280;58179;48.776;9.124;2023-04-27T08:49:33;97458.28;;;12.43;100.00
55914;BME280;58179;48.776;9.124;2023-04-27T08:52:00;97453.28;;;12.51;100.00
55914;BME280;58179;48.776;9.124;2023-04-27T08:54:26;97456.47;;;12.53;100.00
55914;BME280;58179;48.776;9.124;2023-04-27T08:56:52;97452.22;;;12.57;100.00
55914;BME280;58179;48.776;9.124;2023-04-27T08:59:18;97455.47;;;12.69;100.00
55914;BME280;58179;48.776;9.124;2023-04-27T09:01:44;97461.59;;;12.85;100.00
55914;BME280;58179;48.776;9.124;2023-04-27T09:04:11;97455.22;;;12.96;100.00
55914;BME280;58179;48.776;9.124;2023-04-27T09:06:38;97450.44;;;13.08;100.00
55914;BME280;58179;48.776;9.124;2023-04-27T09:09:04;97453.41;;;13.17;100.00
55914;BME280;58179;48.776;9.124;2023-04-27T09:11:33;97453.13;;;13.24;100.00
55914;BME280;58179;48.776;9.124;2023-04-27T09:14:01;97459.25;;;13.34;100.00
55914;BME280;58179;48.776;9.124;2023-04-27T09:16:29;97449.94;;;13.57;100.00
55914;BME280;58179;48.776;9.124;2023-04-27T09:18:57;97460.56;;;13.72;100.00
55914;BME280;58179;48.776;9.124;2023-04-27T09:21:24;97463.97;;;13.93;100.00
55914;BME280;58179;48.776;9.124;2023-04-27T09:23:51;97474.06;;;14.01;100.00
55914;BME280;58179;48.776;9.124;2023-04-27T09:26:22;97467.63;;;14.17;100.00
55914;BME280;58179;48.776;9.124;2023-04-27T09:28:51;97471.31;;;14.26;100.00
55914;BME280;58179;48.776;9.124;2023-04-27T09:31:17;97463.25;;;14.47;100.00
55914;BME280;58179;48.776;9.124;2023-04-27T09:33:44;97462.09;;;14.68;100.00
55914;BME280;58179;48.776;9.124;2023-04-27T09:36:11;97461.50;;;14.76;100.00
55914;BME280;58179;48.776;9.124;2023-04-27T09:38:37;97457.72;;;14.82;100.00
55914;BME280;58179;48.776;9.124;2023-04-27T09:41:05;97465.41;;;14.94;100.00
55914;BME280;58179;48.776;9.124;2023-04-27T09:43:32;97470.72;;;14.94;100.00
55914;BME280;58179;48.776;9.124;2023-04-27T09:45:59;97467.16;;;15.08;100.00
55914;BME280;58179;48.776;9.124;2023-04-27T09:48:26;97464.19;;;15.15;100.00
55914;BME280;58179;48.776;9.124;2023-04-27T09:50:52;97455.34;;;15.20;100.00
55914;BME280;58179;48.776;9.124;2023-04-27T09:53:22;97452.88;;;15.28;100.00
55914;BME280;58179;48.776;9.124;2023-04-27T09:56:02;97454.66;;;15.38;100.00
55914;BME280;58179;48.776;9.124;2023-04-27T09:59:02;97453.75;;;15.53;100.00
55914;BME280;58179;48.776;9.124;2023-04-27T10:01:38;97450.78;;;15.59;100.00
55914;BME280;58179;48.776;9.124;2023-04-27T10:04:26;97455.22;;;15.69;100.00
55914;BME280;58179;48.776;9.124;2023-04-27T10:07:00;97460.09;;;15.62;100.00
55914;BME280;58179;48.776;9.124;2023-04-27T10:09:35;97466.50;;;15.61;100.00
55914;BME280;58179;48.776;9.124;2023-04-27T10:12:15;97456.03;;;15.69;100.00
55914;BME280;58179;48.776;9.124;2023-04-27T10:14:51;97461.69;;;15.86;100.00
55914;BME280;58179;48.776;9.124;2023-04-27T10:17:18;97459.75;;;16.21;100.00
55914;BME280;58179;48.776;9.124;2023-04-27T10:19:56;97457.41;;;16.57;100.00
55914;BME280;58179;48.776;9.124;2023-04-27T10:22:23;97460.88;;;16.57;100.00
55914;BME280;58179;48.776;9.124;2023-04-27T10:24:50;97462.44;;;16.63;100.00
55914;BME280;58179;48.776;9.124;2023-04-27T10:27:18;97455.44;;;17.05;100.00
55914;BME280;58179;48.776;9.124;2023-04-27T10:29:49;97451.88;;;17.28;87.63
55914;BME280;58179;48.776;9.124;2023-04-27T10:32:20;97462.53;;;17.61;100.00
55914;BME280;58179;48.776;9.124;2023-04-27T10:34:46;97462.94;;;17.87;96.50
55914;BME280;58179;48.776;9.124;2023-04-27T10:37:14;97456.28;;;18.39;100.00
55914;BME280;58179;48.776;9.124;2023-04-27T10:39:43;97448.63;;;18.73;100.00
55914;BME280;58179;48.776;9.124;2023-04-27T10:42:09;97448.47;;;18.92;100.00
55914;BME280;58179;48.776;9.124;2023-04-27T10:44:37;97450.19;;;18.74;96.26
55914;BME280;58179;48.776;9.124;2023-04-27T10:47:15;97440.09;;;18.58;100.00
55914;BME280;58179;48.776;9.124;2023-04-27T10:49:41;97442.22;;;18.33;100.00
55914;BME280;58179;48.776;9.124;2023-04-27T10:52:08;97434.66;;;17.94;100.00
55914;BME280;58179;48.776;9.124;2023-04-27T10:54:35;97442.22;;;17.60;100.00
55914;BME280;58179;48.776;9.124;2023-04-27T10:57:04;97445.25;;;17.39;100.00
55914;BME280;58179;48.776;9.124;2023-04-27T10:59:31;97439.84;;;17.26;100.00
55914;BME280;58179;48.776;9.124;2023-04-27T11:01:57;97444.56;;;17.15;100.00
55914;BME280;58179;48.776;9.124;2023-04-27T11:04:35;97443.94;;;17.05;100.00
55914;BME280;58179;48.776;9.124;2023-04-27T11:07:03;97442.28;;;16.90;100.00
55914;BME280;58179;48.776;9.124;2023-04-27T11:09:29;97443.50;;;16.97;100.00
55914;BME280;58179;48.776;9.124;2023-04-27T11:11:55;97435.88;;;17.23;100.00
55914;BME280;58179;48.776;9.124;2023-04-27T11:14:28;97441.22;;;17.56;100.00
55914;BME280;58179;48.776;9.124;2023-04-27T11:16:54;97436.16;;;18.00;100.00
55914;BME280;58179;48.776;9.124;2023-04-27T11:19:20;97435.44;;;18.36;100.00
55914;BME280;58179;48.776;9.124;2023-04-27T11:21:47;97432.06;;;18.58;100.00
55914;BME280;58179;48.776;9.124;2023-04-27T11:24:13;97425.56;;;18.72;94.54
55914;BME280;58179;48.776;9.124;2023-04-27T11:26:39;97422.06;;;18.85;96.38
55914;BME280;58179;48.776;9.124;2023-04-27T11:29:07;97427.56;;;19.03;100.00
55914;BME280;58179;48.776;9.124;2023-04-27T11:31:41;97417.25;;;19.18;100.00
55914;BME280;58179;48.776;9.124;2023-04-27T11:34:08;97420.66;;;19.32;100.00
55914;BME280;58179;48.776;9.124;2023-04-27T11:36:35;97423.09;;;19.43;91.05
55914;BME280;58179;48.776;9.124;2023-04-27T11:39:03;97418.88;;;19.73;100.00
55914;BME280;58179;48.776;9.124;2023-04-27T11:41:34;97429.81;;;19.85;98.16
55914;BME280;58179;48.776;9.124;2023-04-27T11:44:05;97426.75;;;20.08;92.77
55914;BME280;58179;48.776;9.124;2023-04-27T11:46:34;97423.34;;;20.25;97.36
55914;BME280;58179;48.776;9.124;2023-04-27T11:49:02;97431.69;;;20.24;100.00
55914;BME280;58179;48.776;9.124;2023-04-27T11:51:29;97420.75;;;20.03;100.00
55914;BME280;58179;48.776;9.124;2023-04-27T11:54:02;97425.91;;;19.91;100.00
55914;BME280;58179;48.776;9.124;2023-04-27T11:56:34;97426.72;;;19.60;100.00
55914;BME280;58179;48.776;9.124;2023-04-27T11:59:01;97419.09;;;19.31;100.00
55914;BME280;58179;48.776;9.124;2023-04-27T12:01:27;97423.34;;;19.10;100.00
55914;BME280;58179;48.776;9.124;2023-04-27T12:03:53;97416.59;;;18.90;100.00
55914;BME280;58179;48.776;9.124;2023-04-27T12:06:24;97410.34;;;18.81;100.00
55914;BME280;58179;48.776;9.124;2023-04-27T12:08:50;97417.75;;;18.62;100.00
55914;BME280;58179;48.776;9.124;2023-04-27T12:11:17;97407.66;;;18.32;84.71
55914;BME280;58179;48.776;9.124;2023-04-27T12:13:43;97404.19;;;18.31;100.00
55914;BME280;58179;48.776;9.124;2023-04-27T12:16:09;97406.66;;;18.28;100.00
55914;BME280;58179;48.776;9.124;2023-04-27T12:18:35;97399.63;;;18.32;100.00
55914;BME280;58179;48.776;9.124;2023-04-27T12:21:01;97402.47;;;18.49;100.00
55914;BME280;58179;48.776;9.124;2023-04-27T12:23:27;97403.16;;;18.68;100.00
55914;BME280;58179;48.776;9.124;2023-04-27T12:25:53;97401.50;;;18.81;100.00
55914;BME280;58179;48.776;9.124;2023-04-27T12:28:20;97397.59;;;18.87;100.00
55914;BME280;58179;48.776;9.124;2023-04-27T12:30:46;97404.31;;;18.76;100.00
55914;BME280;58179;48.776;9.124;2023-04-27T12:33:12;97402.22;;;18.86;94.81
55914;BME280;58179;48.776;9.124;2023-04-27T12:35:38;97398.59;;;19.58;100.00
55914;BME280;58179;48.776;9.124;2023-04-27T12:40:46;97405.09;;;21.31;95.39
55914;BME280;58179;48.776;9.124;2023-04-27T12:43:12;97400.72;;;22.11;89.45
55914;BME280;58179;48.776;9.124;2023-04-27T12:45:40;97393.31;;;22.78;80.13
55914;BME280;58179;48.776;9.124;2023-04-27T12:48:06;97391.81;;;22.69;73.62
55914;BME280;58179;48.776;9.124;2023-04-27T12:50:33;97395.34;;;22.40;75.96
55914;BME280;58179;48.776;9.124;2023-04-27T12:53:01;97388.53;;;22.05;84.72
55914;BME280;58179;48.776;9.124;2023-04-27T12:55:27;97388.50;;;21.67;84.91
55914;BME280;58179;48.776;9.124;2023-04-27T12:57:53;97382.13;;;21.16;88.74
55914;BME280;58179;48.776;9.124;2023-04-27T13:00:19;97381.84;;;20.66;79.90